Due to severe server failure at the provider, not all demo sites are operational. Will take some days to rebuilt everything.

Demonstration site - Click on the  for more information

This is an optional block. Switch it on/off in your settings-file: $SITE['bannerTop'] = false; or $SITE['bannerBottom'] = false;

You can display ads, any other important text or photo’s using text / html or PHP code.

You can place one or more at the top and or bottom and it can all be different for content / size .



Visit our other weather sites:

Template documentation
and downloads

And another site



Nearby METAR Reports

   
EBAW - Antwerp
Updated: 29-10-2020 12:20
Partly Cloudy  
Partly Cloudy  
   Wind: WSW 18.5 km/h
Wind: WSW 18.5 km/h
Temperature: 13°C
Dew Point: 8°C
Humidity: 72%
Barometer: 1017 hPa
Clouds: Partly Cloudy
Visibility: More than 10 km
Cloud details: Partly Cloudy 1700 ft
EBAW 291120Z 24010KT 9999 SCT017 13/08 Q1017 NOSIG
EBLG - Liège
Updated: 29-10-2020 12:20
Mostly Cloudy  
Mostly Cloudy  
   Wind: WSW 24.1 km/h
Wind: WSW 24.1 km/h
Temperature: 11°C
Dew Point: 9°C
Humidity: 88%
Barometer: 1018 hPa
Clouds: Mostly Cloudy
Visibility: More than 10 km
Cloud details: Partly Cloudy 1100 ft,
Mostly Cloudy 1500 ft
EBLG 291120Z 24013KT 9999 SCT011 BKN015 11/09 Q1018 TEMPO BKN012
EBCV - Mons/Bergen
Updated: 29-10-2020 11:55
Partly Cloudy  
Partly Cloudy  
   Wind: SW 20.4 km/h
Wind: SW 20.4 km/h
Temperature: 12°C
Dew Point: 10°C
Humidity: 88%
Barometer: 1018 hPa
Clouds: Partly Cloudy
Visibility: More than 10 km
Cloud details: Few Clouds 1500 ft,
Partly Cloudy 14000 ft
EBCV 291055Z AUTO 23011KT 9999 FEW015/// SCT140/// 12/10 Q1018 BLU
EHBK - Maastricht
Updated: 29-10-2020 12:25
Overcast  
Overcast  
   Wind: SW 18.5 km/h
Wind: SW 18.5 km/h
Temperature: 12°C
Dew Point: 9°C
Humidity: 82%
Barometer: 1017 hPa
Clouds: Overcast
Visibility: More than 10 km
Cloud details: Few Clouds 1100 ft,
Mostly Cloudy 1400 ft,
Overcast 1800 ft
EHBK 291125Z AUTO 23010KT 200V300 9999 FEW011 BKN014 OVC018 12/09 Q1017 BECMG BKN020
ELLX - Luxemburg
Updated: 29-10-2020 12:20
Light Drizzle, Mostly Cloudy  
Light Drizzle, Mostly Cloudy  
   Wind: WSW 22.2 km/h
Wind: WSW 22.2 km/h
Temperature: 10°C
Wind Chill: 7°C
Dew Point: 7°C
Humidity: 82%
Barometer: 1020 hPa
Clouds: Mostly Cloudy
Visibility: More than 10 km
Cloud details: Few Clouds 900 ft,
Mostly Cloudy 1200 ft
ELLX 291120Z 24012KT 9999 -DZ FEW009 BKN012 10/07 Q1020 BECMG BKN013
EBOS - Oostende
Updated: 29-10-2020 12:20
Light Rain, Few Clouds  
Light Rain, Few Clouds  
   Wind: SW 16.7 km/h
Wind: SW 16.7 km/h
Temperature: 13°C
Dew Point: 10°C
Humidity: 82%
Barometer: 1016 hPa
Clouds: Few Clouds
Visibility: More than 10 km
Cloud details: Few Clouds 1800 ft
EBOS 291120Z 22009KT 9999 -RA FEW018 13/10 Q1016 NOSIG

Script developed by  Saratoga-weather.org Adapted for the template by  Weerstation Leuven

This is an optional block. Switch it on/off in your settings-file: $SITE['bannerTop'] = false; or $SITE['bannerBottom'] = false;

You can display ads, any other important text or photo’s using text / html or PHP code.

You can place one or more at the top and or bottom and it can all be different for content / size .